createdAt,value
2023-02-11T00:06:56.502Z,-2.87
2023-02-11T00:16:56.878Z,-2.56
2023-02-11T00:26:56.932Z,-2.40
2023-02-11T00:36:56.988Z,-2.60
2023-02-11T00:46:57.212Z,-2.60
2023-02-11T00:56:57.391Z,-2.75
2023-02-11T01:06:57.633Z,-3.00
2023-02-11T01:16:57.821Z,-3.08
2023-02-11T01:26:58.060Z,-3.15
2023-02-11T01:36:58.243Z,-3.22
2023-02-11T01:46:58.480Z,-3.38
2023-02-11T01:56:58.659Z,-3.43
2023-02-11T02:06:58.908Z,-3.56
2023-02-11T02:16:59.085Z,-2.89
2023-02-11T02:26:59.324Z,-3.13
2023-02-11T02:36:59.505Z,-2.28
2023-02-11T02:46:59.864Z,-2.42
2023-02-11T02:56:59.950Z,-2.68
2023-02-11T03:07:00.166Z,-2.21
2023-02-11T03:17:00.360Z,-1.96
2023-02-11T03:27:00.590Z,-2.06
2023-02-11T03:37:00.715Z,-2.57
2023-02-11T03:47:00.937Z,-3.07
2023-02-11T03:57:01.114Z,-2.89
2023-02-11T04:07:01.339Z,-2.51
2023-02-11T04:17:01.556Z,-2.08
2023-02-11T04:27:01.755Z,-1.80
2023-02-11T04:37:01.937Z,-1.49
2023-02-11T04:47:02.159Z,-1.35
2023-02-11T04:57:02.337Z,-1.39
2023-02-11T05:07:02.568Z,-1.31
2023-02-11T05:17:02.817Z,-0.89
2023-02-11T05:27:02.962Z,-0.65
2023-02-11T05:37:03.168Z,-0.81
2023-02-11T05:47:03.385Z,-1.43
2023-02-11T05:57:03.590Z,-1.48
2023-02-11T06:07:03.819Z,-1.25
2023-02-11T06:17:04.027Z,-1.23
2023-02-11T06:27:04.219Z,-1.10
2023-02-11T06:37:04.397Z,-1.25
2023-02-11T06:47:04.641Z,-1.36
2023-02-11T06:57:04.818Z,-1.18
2023-02-11T07:07:05.044Z,-0.92
2023-02-11T07:17:05.315Z,-0.83
2023-02-11T07:27:05.392Z,-0.77
2023-02-11T07:37:05.588Z,-0.65
2023-02-11T07:47:05.886Z,-0.51
2023-02-11T07:57:05.889Z,-0.34
2023-02-11T08:07:06.069Z,0.39
2023-02-11T08:17:06.274Z,0.68
2023-02-11T08:27:06.523Z,1.00
2023-02-11T08:37:06.582Z,0.51
2023-02-11T08:47:06.822Z,1.15
2023-02-11T08:57:07.030Z,1.99
2023-02-11T09:07:07.305Z,2.26
2023-02-11T09:17:07.611Z,1.76
2023-02-11T09:27:07.568Z,1.68
2023-02-11T09:37:07.812Z,1.91
2023-02-11T09:47:07.940Z,2.67
2023-02-11T09:57:19.499Z,4.10
2023-02-11T10:07:09.381Z,4.44
2023-02-11T10:17:08.573Z,4.43
2023-02-11T10:27:08.698Z,4.77
2023-02-11T10:37:08.900Z,4.58
2023-02-11T10:47:09.156Z,4.00
2023-02-11T10:57:09.434Z,4.65
2023-02-11T11:07:09.738Z,6.19
2023-02-11T11:17:09.680Z,6.79
2023-02-11T11:27:09.980Z,7.37
2023-02-11T11:37:09.930Z,8.22
2023-02-11T11:47:10.228Z,8.32
2023-02-11T11:57:10.302Z,7.55
2023-02-11T12:07:10.678Z,8.22
2023-02-11T12:17:10.724Z,9.21
2023-02-11T12:27:10.845Z,9.53
2023-02-11T12:37:11.285Z,9.78
2023-02-11T12:47:11.592Z,8.93
2023-02-11T12:57:11.454Z,9.18
2023-02-11T13:07:11.835Z,9.01
2023-02-11T13:17:11.804Z,9.73
2023-02-11T13:27:12.403Z,9.09
2023-02-11T13:37:12.130Z,9.40
2023-02-11T13:47:12.315Z,11.31
2023-02-11T13:57:12.478Z,11.13
2023-02-11T14:07:12.890Z,9.35
2023-02-11T14:17:12.877Z,10.59
2023-02-11T14:27:13.139Z,9.66
2023-02-11T14:37:13.392Z,10.03
2023-02-11T14:47:13.385Z,10.44
2023-02-11T14:57:13.509Z,9.06
2023-02-11T15:07:13.961Z,9.01
2023-02-11T15:17:13.884Z,8.69
2023-02-11T15:27:14.198Z,8.39
2023-02-11T15:37:14.136Z,8.17
2023-02-11T15:47:14.387Z,8.22
2023-02-11T15:57:14.586Z,8.03
2023-02-11T16:07:14.917Z,7.66
2023-02-11T16:17:15.002Z,6.80
2023-02-11T16:27:15.126Z,5.70
2023-02-11T16:37:15.310Z,4.94
2023-02-11T16:47:15.572Z,5.86
2023-02-11T16:57:15.762Z,5.75
2023-02-11T17:07:16.009Z,5.74
2023-02-11T17:17:16.306Z,5.53
2023-02-11T17:27:16.303Z,5.48
2023-02-11T17:37:16.523Z,5.31
2023-02-11T17:47:16.651Z,5.13
2023-02-11T17:57:16.832Z,5.14
2023-02-11T18:07:17.112Z,5.09
2023-02-11T18:17:17.347Z,5.12
2023-02-11T18:27:17.665Z,5.14
2023-02-11T18:37:17.603Z,5.02
2023-02-11T18:47:17.731Z,5.07
2023-02-11T18:57:17.919Z,5.35
2023-02-11T19:07:18.166Z,5.02
2023-02-11T19:17:18.406Z,4.88
2023-02-11T19:27:18.535Z,4.89
2023-02-11T19:37:18.729Z,4.99
2023-02-11T19:47:18.993Z,4.80
2023-02-11T19:57:19.062Z,4.67
2023-02-11T20:07:19.315Z,4.37
2023-02-11T20:17:19.516Z,3.96
2023-02-11T20:27:20.271Z,3.71
2023-02-11T20:37:19.904Z,3.83
2023-02-11T20:47:20.318Z,4.00
2023-02-11T20:57:20.278Z,4.04
2023-02-11T21:07:20.550Z,4.19
2023-02-11T21:17:20.641Z,4.34
2023-02-11T21:27:20.894Z,4.34
2023-02-11T21:37:21.092Z,4.40
2023-02-11T21:47:21.346Z,4.06
2023-02-11T21:57:21.544Z,4.21
2023-02-11T22:07:21.803Z,4.55
2023-02-11T22:17:22.019Z,4.70
2023-02-11T22:27:22.493Z,4.55
2023-02-11T22:37:22.434Z,4.69
2023-02-11T22:47:22.735Z,4.65
2023-02-11T22:57:22.979Z,4.69
2023-02-11T23:07:22.893Z,4.73
2023-02-11T23:17:23.231Z,4.52
2023-02-11T23:27:23.258Z,4.88
2023-02-11T23:37:23.353Z,4.62
2023-02-11T23:47:23.615Z,4.39
2023-02-11T23:57:23.727Z,4.33
